createdAt,value
2017-03-28T07:27:14.938Z,20
2017-03-28T07:27:55.472Z,20
2017-03-28T07:28:35.996Z,20
2017-03-28T07:29:16.529Z,20
2017-03-28T07:29:57.059Z,20
2017-03-28T07:30:37.587Z,20
2017-03-28T07:31:18.107Z,20
2017-03-28T07:31:58.642Z,16
2017-03-28T07:32:39.167Z,16
2017-03-28T07:33:19.702Z,16
2017-03-28T07:34:00.231Z,16
2017-03-28T07:34:40.750Z,16
2017-03-28T07:35:21.256Z,16
2017-03-28T07:40:30.727Z,20
2017-03-28T07:43:34.042Z,116
2017-03-28T07:44:14.759Z,116
2017-03-28T07:44:55.419Z,120
2017-03-28T07:45:36.059Z,120
2017-03-28T07:46:16.647Z,120
2017-03-28T07:46:57.424Z,116
2017-03-28T07:47:38.623Z,116
2017-03-28T07:48:19.537Z,120
2017-03-28T07:49:00.185Z,116
2017-03-28T07:49:40.740Z,120
2017-03-28T07:50:21.287Z,120
2017-03-28T07:51:01.841Z,124
2017-03-28T07:51:42.514Z,124
2017-03-28T07:52:23.145Z,124
2017-03-28T07:53:03.693Z,120
2017-03-28T07:53:44.249Z,124
2017-03-28T07:54:24.801Z,124
2017-03-28T07:55:05.460Z,124
2017-03-28T07:55:46.089Z,124
2017-03-28T07:56:26.657Z,124
2017-03-28T07:57:07.206Z,124
2017-03-28T07:57:47.754Z,124
2017-03-28T07:58:28.305Z,124
2017-03-28T07:59:08.879Z,124
2017-03-28T07:59:49.506Z,124
2017-03-28T08:00:30.162Z,124
2017-03-28T08:01:10.713Z,120
2017-03-28T08:01:51.239Z,124
2017-03-28T08:02:31.824Z,120
2017-03-28T08:03:12.414Z,124
2017-03-28T08:03:53.026Z,124
2017-03-28T08:04:33.544Z,124
2017-03-28T08:05:14.129Z,124
2017-03-28T08:05:54.829Z,124
2017-03-28T08:06:35.423Z,124
2017-03-28T08:07:15.943Z,124
2017-03-28T08:07:56.534Z,120
2017-03-28T08:08:37.085Z,124
2017-03-28T08:09:17.730Z,124
2017-03-28T08:09:58.248Z,120
2017-03-28T08:10:38.866Z,124
2017-03-28T08:11:19.439Z,124
2017-03-28T08:12:00.053Z,124
2017-03-28T08:12:40.692Z,124
2017-03-28T08:13:21.282Z,128
2017-03-28T08:14:01.788Z,128
2017-03-28T08:14:42.344Z,132
2017-03-28T08:19:25.368Z,4236
2017-03-28T08:20:06.020Z,4192
2017-03-28T08:20:46.688Z,4216
2017-03-28T08:21:27.253Z,4216
2017-03-28T08:22:07.859Z,4220
2017-03-28T08:22:48.495Z,4248
2017-03-28T08:23:29.152Z,4268
2017-03-28T08:24:09.849Z,4256
2017-03-28T08:24:50.414Z,4248
2017-03-28T08:25:30.995Z,4256
2017-03-28T08:26:11.591Z,4256
2017-03-28T08:26:52.251Z,4256
2017-03-28T08:27:32.845Z,4260
2017-03-28T08:28:13.561Z,4236
2017-03-28T08:28:54.205Z,4276
2017-03-28T08:29:34.765Z,4292
2017-03-28T08:30:15.397Z,4312
2017-03-28T08:30:56.070Z,4284
2017-03-28T08:31:36.665Z,4264
2017-03-28T08:32:17.264Z,4296
2017-03-28T08:32:57.928Z,4300
2017-03-28T08:33:38.578Z,4300
2017-03-28T08:34:19.225Z,4308
2017-03-28T08:34:59.884Z,4308
2017-03-28T08:35:40.536Z,4316
2017-03-28T08:36:21.179Z,4316
2017-03-28T08:37:01.845Z,4324
2017-03-28T08:37:42.392Z,4304
2017-03-28T08:38:22.989Z,4336
2017-03-28T08:39:03.589Z,4284
2017-03-28T08:39:44.191Z,4356
2017-03-28T08:40:24.829Z,4396
2017-03-28T08:41:05.548Z,4376
2017-03-28T08:41:46.125Z,4388
2017-03-28T08:42:26.759Z,4392
2017-03-28T08:43:07.429Z,4392
2017-03-28T08:43:48.063Z,4400
2017-03-28T08:44:28.729Z,4404
2017-03-28T08:45:09.627Z,4400
2017-03-28T08:45:50.321Z,4420
2017-03-28T08:46:30.983Z,4428
2017-03-28T08:47:11.628Z,4388
2017-03-28T08:47:52.220Z,4424
2017-03-28T08:48:32.894Z,4424
2017-03-28T08:49:13.491Z,4428
2017-03-28T08:49:54.147Z,4404
2017-03-28T08:50:34.695Z,4420
2017-03-28T08:51:15.315Z,4456
2017-03-28T08:51:56.001Z,4408
2017-03-28T08:52:36.665Z,4420
2017-03-28T08:53:17.309Z,4416
2017-03-28T08:53:57.950Z,4424
2017-03-28T08:54:39.533Z,4424
2017-03-28T08:55:20.205Z,4424
2017-03-28T08:56:00.838Z,4424
2017-03-28T08:56:41.483Z,4404
2017-03-28T08:57:22.143Z,4392
2017-03-28T08:58:02.800Z,4424
2017-03-28T08:58:43.450Z,4428
2017-03-28T08:59:24.101Z,4420
2017-03-28T09:00:04.757Z,4560
2017-03-28T09:00:45.408Z,4444
2017-03-28T09:01:26.058Z,4424
2017-03-28T09:02:06.657Z,4436
2017-03-28T09:02:47.329Z,4436
2017-03-28T09:03:27.914Z,4436
2017-03-28T09:04:08.572Z,4428
2017-03-28T09:04:49.120Z,4456
2017-03-28T09:05:29.776Z,4472
2017-03-28T09:06:10.433Z,4440
2017-03-28T09:06:51.078Z,4440
2017-03-28T09:07:31.849Z,4456
2017-03-28T09:08:12.484Z,4456
2017-03-28T09:08:53.141Z,4468
2017-03-28T09:09:33.796Z,4468
2017-03-28T09:10:14.443Z,4472
2017-03-28T09:10:55.096Z,4560
2017-03-28T09:11:35.762Z,4488
2017-03-28T09:12:16.403Z,4380
2017-03-28T09:12:57.980Z,4644
2017-03-28T09:13:38.635Z,4384
2017-03-28T09:14:25.139Z,4504
2017-03-28T09:15:05.835Z,4520
2017-03-28T09:15:46.485Z,4524
2017-03-28T09:16:28.214Z,4532
2017-03-28T09:17:08.959Z,4536
2017-03-28T09:17:49.685Z,4548
2017-03-28T09:18:30.346Z,4584
2017-03-28T09:19:12.013Z,4556
2017-03-28T09:19:52.676Z,4576
2017-03-28T09:20:34.352Z,4560
2017-03-28T09:21:15.014Z,4576
2017-03-28T09:21:55.749Z,4564
2017-03-28T09:22:36.405Z,4600
2017-03-28T09:23:17.054Z,4592
2017-03-28T09:23:57.709Z,4592
2017-03-28T09:24:38.356Z,4592
2017-03-28T09:25:19.003Z,4572
2017-03-28T09:25:59.656Z,4612
2017-03-28T09:26:40.324Z,4616
2017-03-28T09:27:20.902Z,4624
2017-03-28T09:28:01.578Z,4632
2017-03-28T09:28:42.168Z,4656
2017-03-28T09:29:22.820Z,4636
2017-03-28T09:30:03.391Z,4648
2017-03-28T09:30:43.958Z,4608
2017-03-28T09:31:24.547Z,4632
2017-03-28T09:32:05.125Z,4676
2017-03-28T09:32:45.785Z,4656
2017-03-28T09:33:26.433Z,4664
2017-03-28T09:34:07.086Z,4676
2017-03-28T09:34:47.739Z,4664
2017-03-28T09:35:28.395Z,4648
2017-03-28T09:36:09.055Z,4660
2017-03-28T09:36:49.702Z,4628
2017-03-28T09:37:30.350Z,4656
2017-03-28T09:38:11.007Z,4704
2017-03-28T09:38:51.652Z,4704
2017-03-28T09:39:32.301Z,4716
2017-03-28T09:40:12.978Z,4728
2017-03-28T09:40:53.619Z,4728
2017-03-28T09:41:34.264Z,4720
2017-03-28T09:42:14.949Z,4780
2017-03-28T09:42:55.573Z,4776
2017-03-28T09:43:36.230Z,4752
2017-03-28T09:44:16.880Z,4760
2017-03-28T09:44:57.535Z,4768
2017-03-28T09:45:38.195Z,4772
2017-03-28T09:46:18.844Z,4784
2017-03-28T09:46:59.500Z,4792
2017-03-28T09:47:40.155Z,4792
2017-03-28T09:48:20.819Z,4788
2017-03-28T09:49:01.451Z,4828
2017-03-28T09:49:42.105Z,4804
2017-03-28T09:50:22.756Z,4796
2017-03-28T09:51:03.403Z,4848
2017-03-28T09:51:44.072Z,4840
2017-03-28T09:52:24.714Z,4836
2017-03-28T09:53:05.369Z,4824
2017-03-28T09:53:46.024Z,4860
2017-03-28T09:54:26.678Z,4864
2017-03-28T09:55:07.336Z,4880
2017-03-28T09:55:47.979Z,4888
2017-03-28T09:56:28.641Z,4892
2017-03-28T09:57:09.318Z,4972
2017-03-28T09:57:49.941Z,4940
2017-03-28T09:58:30.595Z,4900
2017-03-28T09:59:11.346Z,4940
2017-03-28T09:59:51.999Z,4948
2017-03-28T10:00:32.662Z,4920
2017-03-28T10:01:13.307Z,4940
2017-03-28T10:01:53.897Z,4964
2017-03-28T10:02:34.483Z,4968
2017-03-28T10:03:15.074Z,4952
2017-03-28T10:03:55.615Z,4952
2017-03-28T10:04:36.197Z,4964
2017-03-28T10:05:16.781Z,4900
2017-03-28T10:05:57.383Z,4976
2017-03-28T10:06:37.945Z,4944
2017-03-28T10:07:19.187Z,4988
2017-03-28T10:07:59.738Z,4976
2017-03-28T10:08:40.324Z,5020
2017-03-28T10:09:20.882Z,5568
2017-03-28T10:10:01.465Z,5008
2017-03-28T10:10:44.086Z,4976
2017-03-28T10:11:24.722Z,4920
2017-03-28T10:12:05.287Z,6116
2017-03-28T10:12:45.840Z,5020
2017-03-28T10:13:26.425Z,4992
2017-03-28T10:14:07.070Z,5048
2017-03-28T10:14:47.717Z,5052
2017-03-28T10:15:28.278Z,7036
2017-03-28T10:16:08.882Z,5064
2017-03-28T10:16:49.436Z,5096
2017-03-28T10:17:30.019Z,5076
2017-03-28T10:18:10.602Z,5076
2017-03-28T10:18:51.205Z,5084
2017-03-28T10:19:31.819Z,5096
2017-03-28T10:20:12.407Z,5060
2017-03-28T10:20:53.055Z,5096
2017-03-28T10:21:33.666Z,5104
2017-03-28T10:22:14.265Z,5112
2017-03-28T10:22:54.844Z,5116
2017-03-28T10:23:35.455Z,5112
2017-03-28T10:24:16.018Z,5156
2017-03-28T10:24:56.599Z,5160
2017-03-28T10:25:37.153Z,5164
2017-03-28T10:26:17.733Z,5144
2017-03-28T10:26:58.296Z,5176
2017-03-28T10:27:38.972Z,5172
2017-03-28T10:28:19.549Z,5172
2017-03-28T10:29:00.106Z,5180
2017-03-28T10:29:40.683Z,5192
2017-03-28T10:30:21.279Z,5180
2017-03-28T10:31:01.850Z,5080
2017-03-28T10:31:42.424Z,5092
2017-03-28T10:32:22.986Z,5180
2017-03-28T10:33:03.568Z,5180
2017-03-28T10:33:44.131Z,5204
2017-03-28T10:34:24.713Z,5208
2017-03-28T10:35:05.491Z,5212
2017-03-28T10:35:46.069Z,5216
2017-03-28T10:36:26.638Z,5220
2017-03-28T10:37:07.264Z,5236
2017-03-28T10:37:47.824Z,5240
2017-03-28T10:38:28.391Z,5220
2017-03-28T10:39:08.979Z,5120
2017-03-28T10:39:49.523Z,5272
2017-03-28T10:40:30.100Z,5272
2017-03-28T10:41:10.754Z,5292
2017-03-28T10:41:51.336Z,5272
2017-03-28T10:42:31.900Z,5280
2017-03-28T10:43:12.484Z,5300
2017-03-28T10:43:53.057Z,5300
2017-03-28T10:44:33.635Z,5308
2017-03-28T10:45:14.225Z,5312
2017-03-28T10:45:54.800Z,5308
2017-03-28T10:46:35.390Z,5308
2017-03-28T10:47:15.938Z,5304
2017-03-28T10:47:56.511Z,5300
2017-03-28T10:48:37.092Z,5300
2017-03-28T10:49:17.653Z,5304
2017-03-28T10:49:58.238Z,5356
2017-03-28T10:50:38.796Z,5312
2017-03-28T10:51:19.356Z,5324
2017-03-28T10:51:59.930Z,5352
2017-03-28T10:52:40.532Z,5344
2017-03-28T10:53:21.101Z,5360
2017-03-28T10:54:01.674Z,5364
2017-03-28T10:54:42.265Z,5336
2017-03-28T10:55:22.926Z,5376
2017-03-28T10:56:03.491Z,5444
2017-03-28T10:56:44.064Z,5448
2017-03-28T10:57:24.653Z,5460
2017-03-28T10:58:05.216Z,5432
2017-03-28T10:58:45.783Z,5432
2017-03-28T10:59:26.362Z,5420
2017-03-28T11:00:06.987Z,5432
2017-03-28T11:00:47.574Z,5416
2017-03-28T11:01:28.158Z,5368
2017-03-28T11:02:08.733Z,5448
2017-03-28T11:02:49.354Z,5476
2017-03-28T11:03:29.921Z,5412
2017-03-28T11:04:10.525Z,5472
2017-03-28T11:04:51.116Z,5692
2017-03-28T11:05:31.848Z,5472
2017-03-28T11:06:12.390Z,5468
2017-03-28T11:06:53.375Z,5484
2017-03-28T11:07:33.944Z,5488
2017-03-28T11:08:14.534Z,5480
2017-03-28T11:08:55.107Z,5452
2017-03-28T11:09:35.694Z,5500
2017-03-28T11:10:16.261Z,5468
2017-03-28T11:10:56.894Z,5524
2017-03-28T11:11:37.452Z,5672
2017-03-28T11:12:18.130Z,5468
2017-03-28T11:12:58.695Z,5508
2017-03-28T11:13:39.337Z,5512
2017-03-28T11:14:19.910Z,5544
2017-03-28T11:15:00.508Z,5492
2017-03-28T11:15:41.072Z,5504
2017-03-28T11:16:21.643Z,5804
2017-03-28T11:17:02.216Z,5508
2017-03-28T11:17:42.850Z,5588
2017-03-28T11:18:23.427Z,5508
2017-03-28T11:19:04.031Z,5508
2017-03-28T11:19:44.630Z,5512
2017-03-28T11:20:25.214Z,5528
2017-03-28T11:21:05.771Z,5516
2017-03-28T11:21:46.354Z,5512
2017-03-28T11:22:26.915Z,5712
2017-03-28T11:23:07.479Z,5516
2017-03-28T11:23:48.067Z,5520
2017-03-28T11:24:28.642Z,5516
2017-03-28T11:25:09.216Z,5524
2017-03-28T11:25:49.786Z,5512
2017-03-28T11:26:30.369Z,5920
2017-03-28T11:27:11.004Z,5548
2017-03-28T11:27:51.597Z,5564
2017-03-28T11:28:32.203Z,5556
2017-03-28T11:29:12.779Z,5548
2017-03-28T11:29:53.378Z,5540
2017-03-28T11:30:33.943Z,5540
2017-03-28T11:31:14.578Z,5548
2017-03-28T11:31:55.182Z,5608
2017-03-28T11:32:35.913Z,5744
2017-03-28T11:33:16.493Z,5704
2017-03-28T11:33:57.089Z,5684
2017-03-28T11:34:37.666Z,5684
2017-03-28T11:35:18.237Z,5676
2017-03-28T11:35:58.964Z,5708
2017-03-28T11:36:39.694Z,5700
2017-03-28T11:37:20.267Z,5716
2017-03-28T11:38:00.850Z,5700
2017-03-28T11:38:41.413Z,5736
2017-03-28T11:39:21.989Z,5724
2017-03-28T11:40:02.550Z,5732
2017-03-28T11:40:43.111Z,5852
2017-03-28T11:41:25.107Z,5768
2017-03-28T11:42:05.659Z,5792
2017-03-28T11:42:46.209Z,5816
2017-03-28T11:43:26.888Z,5816
2017-03-28T11:44:07.493Z,5780
2017-03-28T11:44:48.062Z,5780
2017-03-28T11:45:28.624Z,5828
2017-03-28T11:46:09.207Z,5760
2017-03-28T11:46:49.789Z,5752
2017-03-28T11:47:30.427Z,5788
2017-03-28T11:48:11.010Z,5768
2017-03-28T11:48:51.590Z,5756
2017-03-28T11:49:32.158Z,5756
2017-03-28T11:50:12.722Z,5812
2017-03-28T11:50:53.296Z,5780
2017-03-28T11:51:33.877Z,5768
2017-03-28T11:52:14.452Z,5792
2017-03-28T11:52:55.031Z,5756
2017-03-28T11:53:35.606Z,5784
2017-03-28T11:54:16.419Z,5780
2017-03-28T11:54:57.004Z,7084
2017-03-28T11:55:37.590Z,5776
2017-03-28T11:56:18.143Z,5876
2017-03-28T11:56:58.722Z,5788
2017-03-28T11:57:39.300Z,5772
2017-03-28T11:58:19.892Z,5760
2017-03-28T11:59:00.476Z,5776
2017-03-28T11:59:41.045Z,5780
2017-03-28T12:00:21.622Z,5760
2017-03-28T12:01:02.199Z,5760
2017-03-28T12:01:42.787Z,6844
2017-03-28T12:02:23.356Z,5784
2017-03-28T12:03:03.920Z,5792
2017-03-28T12:03:44.486Z,5792
2017-03-28T12:04:25.099Z,5788
2017-03-28T12:05:05.680Z,5808
2017-03-28T12:05:46.239Z,5796
2017-03-28T12:06:26.809Z,5800
2017-03-28T12:07:07.389Z,5808
2017-03-28T12:07:47.956Z,5856
2017-03-28T12:08:28.562Z,5792
2017-03-28T12:09:09.149Z,5768
2017-03-28T12:09:49.707Z,5772
2017-03-28T12:10:30.305Z,5772
2017-03-28T12:11:10.867Z,5788
2017-03-28T12:11:51.450Z,5768
2017-03-28T12:12:32.032Z,5772
2017-03-28T12:13:12.626Z,5796
2017-03-28T12:13:53.221Z,5768
2017-03-28T12:14:33.795Z,5788
2017-03-28T12:15:14.356Z,5792
2017-03-28T12:15:54.923Z,5780
2017-03-28T12:16:35.480Z,5772
2017-03-28T12:17:16.054Z,5772
2017-03-28T12:17:56.618Z,5800
2017-03-28T12:18:37.190Z,5720
2017-03-28T12:19:17.772Z,5640
2017-03-28T12:19:58.374Z,5804
2017-03-28T12:20:39.022Z,5800
2017-03-28T12:21:19.629Z,5820
2017-03-28T12:22:00.189Z,5824
2017-03-28T12:22:40.776Z,6108
2017-03-28T12:23:21.333Z,5860
2017-03-28T12:24:01.901Z,5840
2017-03-28T12:24:42.479Z,5904
2017-03-28T12:25:23.077Z,5872
2017-03-28T12:26:03.655Z,5880
2017-03-28T12:26:44.214Z,5916
2017-03-28T12:27:24.808Z,5816
2017-03-28T12:28:05.472Z,5816
2017-03-28T12:28:47.052Z,5812
2017-03-28T12:29:27.732Z,6284
2017-03-28T12:30:08.302Z,5896
2017-03-28T12:30:48.895Z,5800
2017-03-28T12:31:29.488Z,5864
2017-03-28T12:32:10.079Z,5908
2017-03-28T12:32:50.644Z,5896
2017-03-28T12:33:31.236Z,5888
2017-03-28T12:34:11.819Z,5868
2017-03-28T12:34:52.379Z,5860
2017-03-28T12:35:32.965Z,5868
2017-03-28T12:36:13.550Z,5868
2017-03-28T12:36:54.168Z,5832
2017-03-28T12:37:34.855Z,5808
2017-03-28T12:38:16.556Z,5900
2017-03-28T12:38:57.257Z,6056
2017-03-28T12:39:37.910Z,6044
2017-03-28T12:40:18.536Z,5912
2017-03-28T12:40:59.284Z,5884
2017-03-28T12:41:39.846Z,5884
2017-03-28T12:42:20.410Z,6344
2017-03-28T12:43:00.981Z,5848
2017-03-28T12:43:41.620Z,5744
2017-03-28T12:44:22.582Z,5888
2017-03-28T12:45:03.444Z,5724
2017-03-28T12:45:44.056Z,5716
2017-03-28T12:46:24.968Z,5672
2017-03-28T12:47:05.607Z,5764
2017-03-28T12:47:46.151Z,5780
2017-03-28T12:48:26.756Z,5800
2017-03-28T12:49:07.355Z,5820
2017-03-28T12:49:47.922Z,5860
2017-03-28T12:50:28.519Z,5848
2017-03-28T12:51:09.112Z,5816
2017-03-28T12:51:49.785Z,5844
2017-03-28T12:52:30.455Z,5880
2017-03-28T12:53:11.040Z,6248
2017-03-28T12:53:51.685Z,5820
2017-03-28T12:54:32.372Z,6072
2017-03-28T12:55:12.994Z,5988
2017-03-28T12:55:53.721Z,6160
2017-03-28T12:56:34.395Z,5972
2017-03-28T12:57:15.049Z,5996
2017-03-28T12:57:55.726Z,5928
2017-03-28T12:58:36.354Z,5872
2017-03-28T12:59:17.014Z,5880
2017-03-28T12:59:57.660Z,6100
2017-03-28T13:00:38.209Z,5892
2017-03-28T13:01:19.018Z,5904
2017-03-28T13:01:59.726Z,5920
2017-03-28T13:02:40.660Z,5900
2017-03-28T13:03:21.386Z,5928
2017-03-28T13:04:02.139Z,5928
2017-03-28T13:04:42.894Z,5952
2017-03-28T13:05:23.666Z,5884
2017-03-28T13:06:04.325Z,5936
2017-03-28T13:06:44.974Z,5916
2017-03-28T13:07:25.614Z,5916
2017-03-28T13:08:06.284Z,5924
2017-03-28T13:08:46.931Z,6116
2017-03-28T13:09:27.587Z,5912
2017-03-28T13:10:08.226Z,5948
2017-03-28T13:10:48.892Z,6188
2017-03-28T13:11:29.539Z,5980
2017-03-28T13:12:10.181Z,5856
2017-03-28T13:12:50.764Z,5816
2017-03-28T13:13:31.500Z,5848
2017-03-28T13:14:12.243Z,5868
2017-03-28T13:14:52.819Z,5872
2017-03-28T13:15:33.548Z,5876
2017-03-28T13:16:14.333Z,5880
2017-03-28T13:16:54.914Z,5872
2017-03-28T13:17:37.658Z,5840
2017-03-28T13:18:18.410Z,5824
2017-03-28T13:18:59.165Z,5876
2017-03-28T13:19:39.922Z,5860
2017-03-28T13:20:20.678Z,5856
2017-03-28T13:21:01.951Z,6340
2017-03-28T13:21:42.701Z,5780
2017-03-28T13:22:23.273Z,5724
2017-03-28T13:23:04.032Z,5716
2017-03-28T13:23:44.774Z,5716
2017-03-28T13:24:25.525Z,5632
2017-03-28T13:25:06.113Z,6344
2017-03-28T13:25:46.900Z,5736
2017-03-28T13:26:27.584Z,5768
2017-03-28T13:27:08.332Z,5728
2017-03-28T13:27:48.913Z,6016
2017-03-28T13:28:29.605Z,5744
2017-03-28T13:29:10.288Z,5636
2017-03-28T13:29:51.049Z,5636
2017-03-28T13:30:31.627Z,5792
2017-03-28T13:31:12.298Z,5608
2017-03-28T13:31:53.008Z,5672
2017-03-28T13:32:34.890Z,5648
2017-03-28T13:33:15.641Z,5552
2017-03-28T13:33:56.297Z,5640
2017-03-28T13:34:36.948Z,5644
2017-03-28T13:35:17.608Z,5632
2017-03-28T13:35:58.257Z,5628
2017-03-28T13:36:38.910Z,5640
2017-03-28T13:37:19.558Z,5596
2017-03-28T13:38:00.228Z,5712
2017-03-28T13:38:40.887Z,5588
2017-03-28T13:39:21.565Z,6060
2017-03-28T13:40:02.170Z,5764
2017-03-28T13:40:42.829Z,5612
2017-03-28T13:41:23.495Z,5648
2017-03-28T13:42:04.129Z,5648
2017-03-28T13:42:44.693Z,5608
2017-03-28T13:43:25.313Z,5600
2017-03-28T13:44:06.117Z,5596
2017-03-28T13:44:46.757Z,5580
2017-03-28T13:45:27.356Z,5400
2017-03-28T13:46:08.023Z,5612
2017-03-28T13:46:48.608Z,6092
2017-03-28T13:47:29.257Z,5536
2017-03-28T13:48:09.844Z,5476
2017-03-28T13:48:50.500Z,5512
2017-03-28T13:49:31.116Z,5508
2017-03-28T13:50:11.695Z,5512
2017-03-28T13:50:52.334Z,5492
2017-03-28T13:51:32.972Z,5468
2017-03-28T13:52:13.547Z,5548
2017-03-28T13:52:54.219Z,5496
2017-03-28T13:53:34.826Z,5508
2017-03-28T13:54:15.398Z,5516
2017-03-28T13:54:56.114Z,5496
2017-03-28T13:55:36.795Z,5456
2017-03-28T13:56:17.489Z,5532
2017-03-28T13:56:58.051Z,5424
2017-03-28T13:57:38.694Z,5404
2017-03-28T13:58:19.302Z,5396
2017-03-28T13:58:59.962Z,5360
2017-03-28T13:59:40.536Z,5360
2017-03-28T14:00:21.243Z,5348
2017-03-28T14:01:01.900Z,5308
2017-03-28T14:01:42.562Z,5308
2017-03-28T14:02:23.136Z,5384
2017-03-28T14:03:03.735Z,5360
2017-03-28T14:03:44.842Z,5348
2017-03-28T14:04:25.474Z,5360
2017-03-28T14:05:06.066Z,5392
2017-03-28T14:05:46.752Z,5364
2017-03-28T14:06:27.381Z,5352
2017-03-28T14:07:07.997Z,5392
2017-03-28T14:07:48.642Z,5388
2017-03-28T14:08:29.286Z,5328
2017-03-28T14:09:09.939Z,5328
2017-03-28T14:09:50.594Z,5296
2017-03-28T14:10:32.275Z,5340
2017-03-28T14:11:12.945Z,5456
2017-03-28T14:11:53.590Z,5360
2017-03-28T14:12:34.160Z,5324
2017-03-28T14:13:14.751Z,5592
2017-03-28T14:13:55.327Z,5296
2017-03-28T14:14:35.999Z,5220
2017-03-28T14:15:16.631Z,5256
2017-03-28T14:15:57.255Z,5288
2017-03-28T14:16:37.833Z,5296
2017-03-28T14:17:18.486Z,5316
2017-03-28T14:17:59.147Z,5304
2017-03-28T14:18:39.797Z,5260
2017-03-28T14:19:20.457Z,5300
2017-03-28T14:20:01.098Z,5220
2017-03-28T14:20:41.754Z,5204
2017-03-28T14:21:22.425Z,5196
2017-03-28T14:22:03.057Z,5184
2017-03-28T14:22:43.723Z,5180
2017-03-28T14:23:24.367Z,5184
2017-03-28T14:24:05.017Z,5164
2017-03-28T14:24:45.671Z,5200
2017-03-28T14:25:26.334Z,5008
2017-03-28T14:26:06.982Z,5368
2017-03-28T14:26:47.651Z,5172
2017-03-28T14:27:28.282Z,5132
2017-03-28T14:28:09.023Z,5116
2017-03-28T14:28:51.665Z,5104
2017-03-28T14:29:32.334Z,5052
2017-03-28T14:30:13.044Z,4976
2017-03-28T14:30:53.691Z,5028
2017-03-28T14:31:34.352Z,5048
2017-03-28T14:32:15.023Z,5044
2017-03-28T14:32:55.659Z,5008
2017-03-28T14:33:36.303Z,5008
2017-03-28T14:34:17.068Z,5016
2017-03-28T14:34:57.712Z,5024
2017-03-28T14:35:38.374Z,5004
2017-03-28T14:36:19.033Z,4980
2017-03-28T14:36:59.704Z,4964
2017-03-28T14:37:40.268Z,4932
2017-03-28T14:38:21.021Z,4936
2017-03-28T14:39:01.678Z,4940
2017-03-28T14:39:43.328Z,4884
2017-03-28T14:40:23.917Z,4900
2017-03-28T14:41:04.609Z,4936
2017-03-28T14:41:45.298Z,4892
2017-03-28T14:42:26.052Z,4864
2017-03-28T14:43:06.766Z,4824
2017-03-28T14:43:47.514Z,4800
2017-03-28T14:44:28.209Z,4800
2017-03-28T14:45:08.875Z,4768
2017-03-28T14:45:49.542Z,4756
2017-03-28T14:46:31.337Z,4768
2017-03-28T14:47:11.993Z,4712
2017-03-28T14:47:52.815Z,4764
2017-03-28T14:48:33.550Z,4744
2017-03-28T14:49:15.289Z,4788
2017-03-28T14:49:55.922Z,4712
2017-03-28T14:50:36.570Z,4736
2017-03-28T14:51:17.330Z,4904
2017-03-28T14:51:58.019Z,4664
2017-03-28T14:52:38.761Z,4684
2017-03-28T14:53:19.469Z,4688
2017-03-28T17:44:07.298Z,384
2017-03-28T17:44:48.006Z,368
2017-03-28T17:45:28.729Z,352
2017-03-28T17:46:09.574Z,336
2017-03-28T17:46:50.302Z,324
2017-03-28T17:47:30.959Z,308
2017-03-28T17:48:11.520Z,288
2017-03-28T17:48:52.232Z,272
2017-03-28T17:49:32.932Z,252
2017-03-28T17:50:13.561Z,240
2017-03-28T17:50:54.130Z,220
2017-03-28T17:51:34.820Z,208
2017-03-28T17:52:15.431Z,192
2017-03-28T17:52:56.076Z,176
2017-03-28T17:53:36.743Z,164
2017-03-28T17:54:17.483Z,156
2017-03-28T17:54:58.156Z,144
2017-03-28T17:55:38.779Z,140
2017-03-28T17:56:19.503Z,132
2017-03-28T17:57:00.301Z,120
2017-03-28T17:57:41.065Z,116
2017-03-28T17:58:21.703Z,108
2017-03-28T17:59:02.302Z,100
2017-03-28T17:59:43.008Z,96
2017-03-28T18:00:23.899Z,92
2017-03-28T18:01:04.630Z,84
2017-03-28T18:01:45.395Z,80
2017-03-28T18:02:26.046Z,68
2017-03-28T18:03:06.688Z,68
2017-03-28T18:03:48.370Z,60
2017-03-28T18:04:29.021Z,52
2017-03-28T18:05:09.715Z,48
2017-03-28T18:05:52.477Z,44
2017-03-28T18:06:33.155Z,40
2017-03-28T18:07:15.832Z,36
2017-03-28T18:07:57.501Z,32
2017-03-28T18:08:40.219Z,32
2017-03-28T18:09:20.850Z,28
2017-03-28T18:10:03.574Z,24
2017-03-28T18:10:44.433Z,24
2017-03-28T18:11:25.237Z,16
2017-03-28T18:12:05.925Z,16
2017-03-28T18:12:46.625Z,16
2017-03-28T18:13:27.253Z,16
2017-03-28T18:14:08.052Z,12
2017-03-28T18:14:48.755Z,12
2017-03-28T18:15:29.330Z,8
2017-03-28T18:16:10.061Z,12
2017-03-28T18:16:51.727Z,8
2017-03-28T18:17:32.316Z,8
2017-03-28T18:18:13.025Z,8
2017-03-28T18:18:53.752Z,8
2017-03-28T18:19:34.441Z,4
2017-03-28T18:20:15.151Z,8
2017-03-28T18:20:55.851Z,4
2017-03-28T18:21:38.548Z,4
2017-03-28T18:22:21.259Z,4
2017-03-28T18:23:02.948Z,4
2017-03-28T18:23:43.693Z,0
2017-03-28T18:24:24.369Z,4
2017-03-28T18:25:05.107Z,4
2017-03-28T18:25:45.757Z,4
2017-03-28T18:26:26.407Z,4
2017-03-28T18:27:07.164Z,4
2017-03-28T18:27:53.792Z,0
2017-03-28T18:28:40.346Z,0
2017-03-28T18:29:20.999Z,0
2017-03-28T18:30:01.659Z,0
2017-03-28T18:30:42.456Z,0
2017-03-28T18:31:23.169Z,0
2017-03-28T18:32:03.947Z,0
2017-03-28T18:32:44.703Z,0
2017-03-28T18:33:25.448Z,0
2017-03-28T18:34:07.104Z,0
2017-03-28T18:34:47.759Z,0
2017-03-28T18:35:28.410Z,0
2017-03-28T18:36:09.062Z,0
2017-03-28T18:36:50.753Z,0
2017-03-28T18:37:31.565Z,0
2017-03-28T18:38:12.254Z,0
2017-03-28T18:38:53.012Z,0
2017-03-28T18:39:33.775Z,0
2017-03-28T18:40:14.606Z,0
2017-03-28T18:40:56.299Z,0
2017-03-28T18:41:37.060Z,0
2017-03-28T18:42:17.810Z,0
2017-03-28T18:42:58.487Z,0
2017-03-28T18:43:39.214Z,0
2017-03-28T18:44:19.794Z,0
2017-03-28T18:45:00.636Z,0
2017-03-28T18:45:41.386Z,0
2017-03-28T18:46:21.940Z,0
2017-03-28T18:47:03.715Z,0
2017-03-28T18:47:45.406Z,0
2017-03-28T18:48:26.016Z,0
2017-03-28T18:49:06.931Z,0
2017-03-28T18:49:47.653Z,0
2017-03-28T18:50:28.303Z,0
2017-03-28T18:51:10.011Z,0
2017-03-28T18:51:50.788Z,0
2017-03-28T18:52:38.342Z,0
2017-03-28T18:53:19.013Z,0
2017-03-28T18:53:59.764Z,0
2017-03-28T18:54:40.360Z,0
2017-03-28T18:55:23.114Z,0
2017-03-28T18:56:04.801Z,0
2017-03-28T18:56:46.057Z,0
2017-03-28T18:57:31.856Z,0
2017-03-28T18:58:12.538Z,0
2017-03-28T18:58:53.133Z,0
2017-03-28T18:59:34.838Z,0
2017-03-28T19:00:16.092Z,0
2017-03-28T19:00:56.861Z,0
2017-03-28T19:01:37.560Z,0
2017-03-28T19:02:18.142Z,0
2017-03-28T19:02:59.392Z,0
2017-03-28T19:03:41.034Z,0
2017-03-28T19:04:22.605Z,0
2017-03-28T19:05:04.027Z,0
2017-03-28T19:05:46.435Z,0
2017-03-28T19:06:29.245Z,0
2017-03-28T19:07:11.480Z,0
2017-03-28T19:07:52.989Z,0
2017-03-28T19:08:34.161Z,0
2017-03-28T19:09:14.870Z,0
2017-03-28T19:09:56.454Z,0
2017-03-28T19:10:37.995Z,0
2017-03-28T19:11:18.670Z,0
2017-03-28T19:11:59.323Z,0
2017-03-28T19:12:39.906Z,0
2017-03-28T19:13:20.595Z,0
2017-03-28T19:14:01.545Z,0
2017-03-28T19:14:42.893Z,0
2017-03-28T19:15:23.453Z,0
2017-03-28T19:16:04.186Z,0
2017-03-28T19:16:45.122Z,0
2017-03-28T19:17:26.078Z,0
2017-03-28T19:18:07.068Z,0
2017-03-28T19:18:48.497Z,0
2017-03-28T19:19:29.835Z,0
2017-03-28T19:20:10.948Z,0
2017-03-28T19:20:51.879Z,0
2017-03-28T19:21:32.626Z,0
2017-03-28T19:22:13.315Z,0
2017-03-28T19:22:54.305Z,0
2017-03-28T19:23:35.583Z,0
2017-03-28T19:24:16.932Z,0
2017-03-28T19:24:57.572Z,0
2017-03-28T19:25:38.243Z,0
2017-03-28T19:26:18.806Z,0
2017-03-28T19:26:59.460Z,0
2017-03-28T19:27:40.178Z,0
2017-03-28T19:28:20.849Z,0
2017-03-28T19:29:01.590Z,0
2017-03-28T19:29:42.371Z,0
2017-03-28T19:30:22.992Z,0
2017-03-28T19:31:03.657Z,0
2017-03-28T19:31:44.309Z,0
2017-03-28T19:32:26.545Z,0
2017-03-28T19:33:07.250Z,0
2017-03-28T19:33:47.903Z,0
2017-03-28T19:34:28.554Z,0
2017-03-28T19:35:09.223Z,0
2017-03-28T19:35:49.978Z,0
2017-03-28T19:36:30.874Z,0
2017-03-28T19:37:12.247Z,0
2017-03-28T19:37:53.835Z,0
2017-03-28T19:38:35.844Z,0
2017-03-28T19:39:17.060Z,0
2017-03-28T19:39:58.386Z,0
2017-03-28T19:40:39.237Z,0
2017-03-28T19:41:20.740Z,0
2017-03-28T19:42:01.961Z,0
2017-03-28T19:42:43.902Z,0